createdAt,value
2022-08-09T00:01:55.336Z,17.68
2022-08-09T00:05:03.099Z,17.65
2022-08-09T00:08:31.930Z,17.56
2022-08-09T00:11:58.617Z,17.57
2022-08-09T00:15:06.283Z,17.46
2022-08-09T00:18:11.310Z,17.49
2022-08-09T00:21:15.320Z,17.44
2022-08-09T00:24:20.116Z,17.41
2022-08-09T00:27:23.246Z,17.38
2022-08-09T00:30:30.666Z,17.42
2022-08-09T00:33:50.682Z,17.46
2022-08-09T00:36:54.502Z,17.60
2022-08-09T00:40:14.161Z,17.67
2022-08-09T00:44:16.634Z,17.75
2022-08-09T00:46:56.418Z,17.77
2022-08-09T00:50:04.949Z,17.76
2022-08-09T00:53:10.983Z,17.86
2022-08-09T00:56:15.997Z,17.88
2022-08-09T00:59:20.141Z,17.89
2022-08-09T01:02:51.381Z,17.88
2022-08-09T01:06:17.502Z,17.86
2022-08-09T01:09:37.343Z,17.82
2022-08-09T01:12:46.122Z,17.82
2022-08-09T01:15:53.022Z,17.79
2022-08-09T01:19:04.649Z,17.74
2022-08-09T01:22:33.151Z,17.64
2022-08-09T01:26:01.090Z,17.58
2022-08-09T01:29:06.629Z,17.44
2022-08-09T01:32:32.093Z,17.38
2022-08-09T01:35:53.659Z,17.31
2022-08-09T01:38:58.957Z,17.23
2022-08-09T01:42:11.256Z,17.20
2022-08-09T01:45:15.224Z,17.14
2022-08-09T01:48:19.752Z,17.17
2022-08-09T01:51:34.303Z,17.07
2022-08-09T01:54:50.672Z,17.09
2022-08-09T01:57:55.845Z,17.15
2022-08-09T02:01:01.255Z,17.19
2022-08-09T02:04:08.573Z,17.14
2022-08-09T02:08:35.548Z,17.11
2022-08-09T02:10:50.843Z,17.08
2022-08-09T02:14:06.598Z,17.01
2022-08-09T02:17:59.447Z,16.87
2022-08-09T02:20:39.821Z,16.87
2022-08-09T02:23:56.701Z,16.87
2022-08-09T02:27:03.604Z,16.90
2022-08-09T02:30:11.081Z,16.88
2022-08-09T02:33:20.203Z,16.88
2022-08-09T02:36:39.463Z,16.91
2022-08-09T02:39:54.930Z,16.87
2022-08-09T02:43:02.876Z,16.75
2022-08-09T02:46:09.469Z,16.58
2022-08-09T02:49:16.170Z,16.48
2022-08-09T02:52:21.153Z,16.52
2022-08-09T02:55:39.360Z,16.50
2022-08-09T02:58:51.540Z,16.47
2022-08-09T03:02:06.686Z,16.46
2022-08-09T03:05:16.862Z,16.36
2022-08-09T03:08:22.123Z,16.38
2022-08-09T03:11:37.628Z,16.34
2022-08-09T03:14:51.946Z,16.24
2022-08-09T03:17:57.926Z,16.16
2022-08-09T03:21:03.968Z,16.05
2022-08-09T03:24:06.822Z,15.96
2022-08-09T03:27:14.247Z,16.00
2022-08-09T03:30:33.499Z,15.94
2022-08-09T03:33:54.205Z,15.93
2022-08-09T03:37:02.426Z,15.89
2022-08-09T03:40:22.736Z,15.72
2022-08-09T03:43:32.210Z,15.78
2022-08-09T03:46:37.005Z,15.74
2022-08-09T03:49:41.073Z,15.80
2022-08-09T03:53:03.577Z,15.74
2022-08-09T03:56:08.916Z,15.68
2022-08-09T03:59:21.013Z,15.71
2022-08-09T04:02:31.551Z,15.85
2022-08-09T04:05:40.545Z,15.97
2022-08-09T04:08:46.750Z,16.04
2022-08-09T04:12:04.234Z,16.00
2022-08-09T04:15:11.575Z,16.07
2022-08-09T04:18:21.214Z,16.17
2022-08-09T04:21:24.190Z,16.43
2022-08-09T04:24:27.357Z,16.51
2022-08-09T04:27:30.169Z,16.72
2022-08-09T04:30:35.751Z,16.81
2022-08-09T04:33:47.262Z,16.91
2022-08-09T04:36:56.749Z,16.98
2022-08-09T04:39:59.399Z,17.09
2022-08-09T04:43:05.871Z,17.15
2022-08-09T04:46:08.454Z,17.19
2022-08-09T04:49:40.840Z,17.51
2022-08-09T04:52:45.047Z,18.05
2022-08-09T04:55:58.433Z,18.82
2022-08-09T04:59:07.408Z,19.41
2022-08-09T05:02:16.011Z,20.02
2022-08-09T05:05:31.490Z,20.83
2022-08-09T05:08:43.776Z,21.67
2022-08-09T05:11:50.281Z,22.18
2022-08-09T05:14:53.306Z,22.55
2022-08-09T05:18:39.215Z,22.96
2022-08-09T05:21:24.498Z,23.59
2022-08-09T05:24:27.847Z,24.06
2022-08-09T05:27:31.309Z,24.15
2022-08-09T05:30:34.577Z,24.24
2022-08-09T05:33:42.641Z,24.64
2022-08-09T05:36:46.763Z,24.95
2022-08-09T05:39:51.386Z,25.16
2022-08-09T05:42:57.672Z,25.33
2022-08-09T05:46:02.159Z,25.16
2022-08-09T05:49:07.448Z,25.28
2022-08-09T05:52:31.667Z,25.13
2022-08-09T05:55:35.064Z,25.38
2022-08-09T05:58:38.154Z,25.82
2022-08-09T06:01:44.368Z,25.95
2022-08-09T06:04:48.926Z,26.41
2022-08-09T06:08:08.149Z,26.31
2022-08-09T06:11:16.359Z,26.46
2022-08-09T06:14:20.304Z,26.40
2022-08-09T06:17:23.915Z,26.38
2022-08-09T06:20:27.593Z,26.70
2022-08-09T06:23:57.874Z,27.34
2022-08-09T06:26:57.050Z,27.67
2022-08-09T06:30:08.812Z,27.58
2022-08-09T06:33:30.077Z,27.87
2022-08-09T06:36:33.668Z,28.06
2022-08-09T06:39:48.358Z,28.10
2022-08-09T06:42:54.002Z,28.53
2022-08-09T06:46:06.861Z,27.89
2022-08-09T06:49:16.125Z,28.17
2022-08-09T06:52:26.983Z,28.17
2022-08-09T06:55:33.062Z,28.69
2022-08-09T07:00:46.990Z,28.76
2022-08-09T07:02:03.702Z,28.81
2022-08-09T07:05:08.336Z,29.09
2022-08-09T07:08:11.227Z,29.44
2022-08-09T07:11:17.739Z,28.65
2022-08-09T07:14:27.333Z,29.53
2022-08-09T07:17:39.490Z,29.89
2022-08-09T07:20:44.468Z,29.26
2022-08-09T07:23:56.441Z,29.87
2022-08-09T07:27:02.227Z,29.24
2022-08-09T07:30:06.066Z,29.52
2022-08-09T07:33:12.448Z,29.53
2022-08-09T07:36:19.811Z,29.76
2022-08-09T07:39:40.516Z,29.49
2022-08-09T07:42:54.145Z,29.88
2022-08-09T07:46:02.065Z,30.48
2022-08-09T07:49:06.454Z,30.90
2022-08-09T07:52:17.768Z,31.35
2022-08-09T07:55:21.279Z,30.95
2022-08-09T07:58:31.817Z,30.65
2022-08-09T08:01:35.755Z,30.19
2022-08-09T08:04:42.614Z,29.71
2022-08-09T08:08:43.622Z,30.24
2022-08-09T08:12:10.511Z,29.93
2022-08-09T08:14:38.510Z,30.28
2022-08-09T08:17:53.461Z,31.10
2022-08-09T08:20:58.309Z,30.58
2022-08-09T08:24:12.092Z,30.56
2022-08-09T08:27:19.101Z,30.61
2022-08-09T08:30:28.852Z,30.47
2022-08-09T08:33:49.613Z,29.79
2022-08-09T08:36:54.669Z,30.00
2022-08-09T08:39:58.759Z,29.74
2022-08-09T08:43:13.327Z,29.67
2022-08-09T08:46:32.115Z,30.42
2022-08-09T08:49:48.025Z,30.05
2022-08-09T08:52:58.971Z,30.78
2022-08-09T08:56:03.331Z,30.42
2022-08-09T08:59:19.786Z,29.90
2022-08-09T09:02:31.334Z,30.18
2022-08-09T09:05:58.471Z,30.16
2022-08-09T09:08:59.591Z,29.63
2022-08-09T09:12:03.080Z,29.50
2022-08-09T09:15:12.089Z,29.51
2022-08-09T09:18:16.371Z,29.33
2022-08-09T09:21:26.170Z,29.20
2022-08-09T09:24:31.544Z,29.43
2022-08-09T09:28:04.141Z,29.23
2022-08-09T09:30:58.245Z,29.52
2022-08-09T09:34:15.295Z,29.50
2022-08-09T09:37:32.125Z,29.30
2022-08-09T09:40:46.163Z,29.08
2022-08-09T09:44:11.575Z,29.32
2022-08-09T09:47:16.832Z,29.14
2022-08-09T09:50:49.559Z,28.59
2022-08-09T09:54:18.122Z,28.64
2022-08-09T09:58:03.711Z,28.71
2022-08-09T10:00:55.728Z,29.36
2022-08-09T10:04:09.506Z,28.94
2022-08-09T10:07:26.301Z,29.17
2022-08-09T10:10:31.323Z,29.16
2022-08-09T10:13:45.249Z,30.21
2022-08-09T10:16:57.649Z,29.18
2022-08-09T10:20:27.029Z,29.64
2022-08-09T10:23:37.479Z,29.20
2022-08-09T10:26:44.348Z,29.71
2022-08-09T10:30:56.807Z,29.09
2022-08-09T10:34:04.344Z,29.17
2022-08-09T10:36:36.579Z,29.25
2022-08-09T10:39:49.460Z,29.35
2022-08-09T10:42:53.377Z,28.83
2022-08-09T10:46:00.120Z,29.13
2022-08-09T10:49:46.909Z,28.60
2022-08-09T10:53:05.637Z,29.00
2022-08-09T10:56:22.958Z,28.95
2022-08-09T10:59:30.671Z,28.59
2022-08-09T11:03:12.032Z,28.88
2022-08-09T11:06:15.447Z,28.56
2022-08-09T11:09:41.246Z,28.53
2022-08-09T11:13:51.063Z,28.51
2022-08-09T11:16:47.168Z,28.53
2022-08-09T11:20:10.964Z,28.46
2022-08-09T11:23:23.950Z,28.45
2022-08-09T11:26:40.810Z,28.50
2022-08-09T11:30:04.199Z,27.99
2022-08-09T11:33:18.282Z,28.07
2022-08-09T11:36:30.532Z,28.10
2022-08-09T11:40:02.862Z,27.92
2022-08-09T11:43:07.404Z,28.07
2022-08-09T11:46:12.277Z,28.19
2022-08-09T11:49:16.892Z,28.32
2022-08-09T11:53:01.142Z,28.44
2022-08-09T11:55:53.228Z,28.71
2022-08-09T11:59:05.819Z,28.14
2022-08-09T12:02:34.657Z,28.13
2022-08-09T12:05:42.196Z,28.05
2022-08-09T12:08:53.579Z,27.86
2022-08-09T12:12:04.083Z,28.42
2022-08-09T12:15:50.344Z,28.04
2022-08-09T12:18:53.915Z,28.22
2022-08-09T12:22:01.994Z,28.23
2022-08-09T12:25:16.022Z,28.25
2022-08-09T12:29:13.736Z,28.40
2022-08-09T12:32:01.604Z,28.57
2022-08-09T12:35:10.807Z,28.39
2022-08-09T12:38:37.525Z,27.77
2022-08-09T12:41:41.386Z,28.18
2022-08-09T12:44:52.232Z,28.08
2022-08-09T12:47:57.476Z,28.15
2022-08-09T12:51:03.916Z,27.99
2022-08-09T12:54:08.221Z,28.69
2022-08-09T12:57:11.207Z,28.17
2022-08-09T13:00:25.494Z,28.49
2022-08-09T13:03:57.039Z,28.39
2022-08-09T13:06:54.902Z,28.16
2022-08-09T13:10:04.860Z,28.60
2022-08-09T13:13:11.288Z,29.13
2022-08-09T13:16:17.553Z,29.03
2022-08-09T13:20:09.377Z,28.52
2022-08-09T13:24:06.000Z,28.71
2022-08-09T13:26:52.129Z,28.65
2022-08-09T13:30:02.679Z,29.05
2022-08-09T13:33:07.099Z,29.04
2022-08-09T13:36:37.502Z,28.41
2022-08-09T13:41:50.485Z,28.57
2022-08-09T13:43:03.502Z,28.62
2022-08-09T13:47:14.550Z,28.28
2022-08-09T13:49:38.045Z,28.17
2022-08-09T13:52:43.433Z,28.13
2022-08-09T13:55:50.507Z,28.16
2022-08-09T13:58:53.447Z,28.18
2022-08-09T14:02:01.842Z,28.14
2022-08-09T14:05:05.801Z,27.84
2022-08-09T14:08:10.326Z,27.68
2022-08-09T14:11:16.073Z,27.31
2022-08-09T14:14:26.062Z,27.51
2022-08-09T14:17:32.670Z,27.35
2022-08-09T14:20:54.880Z,27.20
2022-08-09T14:24:01.114Z,27.43
2022-08-09T14:27:19.841Z,27.61
2022-08-09T14:30:36.730Z,27.66
2022-08-09T14:33:43.811Z,27.85
2022-08-09T14:36:55.829Z,27.93
2022-08-09T14:39:58.610Z,28.01
2022-08-09T14:43:02.119Z,28.06
2022-08-09T14:46:54.603Z,27.94
2022-08-09T14:49:28.986Z,27.98
2022-08-09T14:52:37.675Z,28.00
2022-08-09T14:55:48.092Z,27.89
2022-08-09T14:58:56.155Z,28.03
2022-08-09T15:01:59.482Z,27.74
2022-08-09T15:05:02.214Z,27.65
2022-08-09T15:08:06.515Z,27.56
2022-08-09T15:11:13.173Z,27.68
2022-08-09T15:14:19.494Z,27.66
2022-08-09T15:17:22.209Z,27.75
2022-08-09T15:21:57.166Z,27.74
2022-08-09T15:24:06.032Z,27.73
2022-08-09T15:27:15.488Z,27.52
2022-08-09T15:30:56.559Z,27.42
2022-08-09T15:34:19.545Z,27.45
2022-08-09T15:37:37.745Z,27.69
2022-08-09T15:40:44.235Z,27.49
2022-08-09T15:43:47.016Z,27.38
2022-08-09T15:46:49.907Z,27.27
2022-08-09T15:50:00.333Z,27.07
2022-08-09T15:54:02.137Z,26.88
2022-08-09T15:56:30.983Z,26.74
2022-08-09T15:59:37.300Z,26.64
2022-08-09T16:02:40.287Z,26.56
2022-08-09T16:05:53.773Z,26.52
2022-08-09T16:09:01.152Z,26.47
2022-08-09T16:12:06.790Z,26.45
2022-08-09T16:16:10.255Z,26.38
2022-08-09T16:18:37.360Z,26.32
2022-08-09T16:21:51.957Z,26.27
2022-08-09T16:24:59.590Z,26.21
2022-08-09T16:28:04.403Z,26.16
2022-08-09T16:31:16.229Z,26.07
2022-08-09T16:34:19.147Z,25.97
2022-08-09T16:37:53.656Z,25.87
2022-08-09T16:40:49.478Z,25.72
2022-08-09T16:43:52.798Z,25.72
2022-08-09T16:47:04.219Z,25.62
2022-08-09T16:50:31.320Z,25.64
2022-08-09T16:53:37.304Z,25.63
2022-08-09T16:56:48.951Z,25.67
2022-08-09T16:59:57.474Z,25.69
2022-08-09T17:03:00.994Z,25.77
2022-08-09T17:06:28.199Z,25.80
2022-08-09T17:09:45.339Z,25.77
2022-08-09T17:12:49.488Z,25.77
2022-08-09T17:15:59.076Z,25.69
2022-08-09T17:19:03.371Z,25.72
2022-08-09T17:22:08.327Z,25.69
2022-08-09T17:25:13.086Z,25.60
2022-08-09T17:28:16.166Z,25.55
2022-08-09T17:31:20.852Z,25.49
2022-08-09T17:35:01.443Z,25.43
2022-08-09T17:38:12.511Z,25.37
2022-08-09T17:41:12.158Z,25.32
2022-08-09T17:44:42.109Z,25.23
2022-08-09T17:47:47.034Z,25.14
2022-08-09T17:50:56.377Z,25.04
2022-08-09T17:54:02.789Z,24.92
2022-08-09T17:57:07.967Z,24.78
2022-08-09T18:00:33.588Z,24.63
2022-08-09T18:03:47.146Z,24.55
2022-08-09T18:07:23.665Z,24.43
2022-08-09T18:10:13.391Z,24.32
2022-08-09T18:13:39.133Z,24.14
2022-08-09T18:16:48.879Z,24.08
2022-08-09T18:21:00.343Z,23.99
2022-08-09T18:24:12.347Z,23.89
2022-08-09T18:26:46.748Z,23.84
2022-08-09T18:30:38.121Z,23.84
2022-08-09T18:33:15.277Z,23.79
2022-08-09T18:36:25.602Z,23.81
2022-08-09T18:39:35.249Z,23.88
2022-08-09T18:42:44.245Z,23.96
2022-08-09T18:46:47.707Z,24.03
2022-08-09T18:49:09.927Z,24.10
2022-08-09T18:52:13.377Z,24.10
2022-08-09T18:55:29.254Z,24.09
2022-08-09T18:58:40.585Z,24.10
2022-08-09T19:01:46.257Z,24.11
2022-08-09T19:05:14.903Z,24.09
2022-08-09T19:08:14.144Z,24.01
2022-08-09T19:11:23.813Z,24.05
2022-08-09T19:14:40.476Z,23.99
2022-08-09T19:17:54.299Z,23.95
2022-08-09T19:21:00.659Z,23.92
2022-08-09T19:24:33.357Z,23.91
2022-08-09T19:27:28.941Z,23.76
2022-08-09T19:30:32.313Z,23.84
2022-08-09T19:33:35.656Z,23.74
2022-08-09T19:36:38.341Z,23.78
2022-08-09T19:40:03.068Z,23.78
2022-08-09T19:43:10.227Z,23.81
2022-08-09T19:46:34.127Z,23.87
2022-08-09T19:50:07.501Z,23.84
2022-08-09T19:53:04.396Z,23.77
2022-08-09T19:56:07.695Z,23.70
2022-08-09T19:59:58.385Z,23.66
2022-08-09T20:04:11.217Z,23.54
2022-08-09T20:06:22.632Z,23.52
2022-08-09T20:09:44.390Z,23.43
2022-08-09T20:12:49.225Z,23.33
2022-08-09T20:16:33.819Z,23.26
2022-08-09T20:19:49.118Z,23.19
2022-08-09T20:22:44.658Z,23.13
2022-08-09T20:25:49.625Z,23.18
2022-08-09T20:28:55.743Z,23.15
2022-08-09T20:32:29.830Z,23.12
2022-08-09T20:35:21.981Z,23.09
2022-08-09T20:38:30.901Z,23.04
2022-08-09T20:41:49.035Z,23.02
2022-08-09T20:45:04.577Z,22.97
2022-08-09T20:48:20.951Z,22.91
2022-08-09T20:51:25.485Z,22.96
2022-08-09T20:54:28.889Z,22.88
2022-08-09T20:57:32.494Z,22.83
2022-08-09T21:00:35.997Z,22.74
2022-08-09T21:05:49.222Z,22.73
2022-08-09T21:07:14.011Z,22.68
2022-08-09T21:10:17.749Z,22.59
2022-08-09T21:13:21.350Z,22.52
2022-08-09T21:16:30.436Z,22.51
2022-08-09T21:20:17.304Z,22.62
2022-08-09T21:22:56.852Z,22.73
2022-08-09T21:26:00.264Z,22.86
2022-08-09T21:29:11.982Z,22.92
2022-08-09T21:32:18.788Z,22.91
2022-08-09T21:35:22.089Z,22.90
2022-08-09T21:38:31.053Z,22.91
2022-08-09T21:42:04.477Z,22.88
2022-08-09T21:44:57.752Z,22.85
2022-08-09T21:48:01.290Z,22.78
2022-08-09T21:51:13.348Z,22.76
2022-08-09T21:54:17.315Z,22.64
2022-08-09T21:57:36.861Z,22.47
2022-08-09T22:00:41.635Z,22.55
2022-08-09T22:03:48.386Z,22.42
2022-08-09T22:07:04.688Z,22.29
2022-08-09T22:10:10.037Z,22.18
2022-08-09T22:13:13.285Z,22.16
2022-08-09T22:16:21.333Z,22.02
2022-08-09T22:19:58.368Z,21.85
2022-08-09T22:22:49.379Z,21.69
2022-08-09T22:26:06.653Z,21.57
2022-08-09T22:29:11.737Z,21.49
2022-08-09T22:32:29.836Z,21.51
2022-08-09T22:36:01.652Z,21.54
2022-08-09T22:38:57.057Z,21.59
2022-08-09T22:42:16.084Z,21.66
2022-08-09T22:48:10.454Z,21.69
2022-08-09T22:48:50.626Z,21.59
2022-08-09T22:51:56.876Z,21.51
2022-08-09T22:55:00.605Z,21.45
2022-08-09T22:58:04.948Z,21.35
2022-08-09T23:01:08.250Z,21.30
2022-08-09T23:04:11.065Z,21.22
2022-08-09T23:08:23.018Z,21.16
2022-08-09T23:10:56.103Z,20.97
2022-08-09T23:13:59.701Z,20.96
2022-08-09T23:17:02.373Z,20.92
2022-08-09T23:20:08.016Z,20.90
2022-08-09T23:23:11.030Z,20.84
2022-08-09T23:26:13.954Z,20.81
2022-08-09T23:29:17.911Z,20.81
2022-08-09T23:32:20.869Z,20.80
2022-08-09T23:35:23.601Z,20.70
2022-08-09T23:38:26.609Z,20.67
2022-08-09T23:41:29.846Z,20.64
2022-08-09T23:44:33.154Z,20.61
2022-08-09T23:47:35.761Z,20.51
2022-08-09T23:50:38.950Z,20.43
2022-08-09T23:53:42.248Z,20.34
2022-08-09T23:56:54.281Z,20.19
